createdAt,value
2019-02-22T00:00:19.315Z,5.5
2019-02-22T00:03:19.413Z,5.2
2019-02-22T00:06:19.436Z,5.5
2019-02-22T00:09:20.983Z,5.4
2019-02-22T00:12:19.614Z,5.6
2019-02-22T00:15:18.810Z,5.3
2019-02-22T00:18:19.156Z,5.6
2019-02-22T00:21:20.724Z,5.5
2019-02-22T00:24:19.006Z,5.3
2019-02-22T00:27:19.171Z,5.6
2019-02-22T00:30:21.893Z,5.5
2019-02-22T00:33:19.204Z,5.4
2019-02-22T00:36:20.240Z,5.3
2019-02-22T00:42:18.889Z,5.2
2019-02-22T00:45:19.728Z,5.2
2019-02-22T00:48:18.847Z,5.1
2019-02-22T00:51:19.940Z,5.2
2019-02-22T00:54:19.077Z,5.4
2019-02-22T00:57:19.716Z,5.6
2019-02-22T01:00:19.205Z,5.4
2019-02-22T01:03:19.242Z,5.1
2019-02-22T01:06:19.345Z,5.3
2019-02-22T01:09:19.169Z,5.1
2019-02-22T01:12:19.183Z,5.4
2019-02-22T01:15:19.434Z,5.4
2019-02-22T01:18:19.028Z,5.3
2019-02-22T01:21:19.418Z,5.3
2019-02-22T01:24:19.122Z,5.4
2019-02-22T01:27:18.832Z,5.3
2019-02-22T01:30:19.177Z,5.4
2019-02-22T01:33:18.979Z,5.5
2019-02-22T01:36:19.183Z,5.5
2019-02-22T01:39:18.836Z,5.4
2019-02-22T01:42:18.909Z,5.1
2019-02-22T01:45:19.343Z,5.6
2019-02-22T01:48:19.157Z,5.2
2019-02-22T01:51:19.327Z,5.2
2019-02-22T01:54:19.838Z,5.3
2019-02-22T01:57:18.792Z,5.2
2019-02-22T02:00:20.876Z,5.5
2019-02-22T02:03:19.149Z,5.5
2019-02-22T02:06:19.324Z,5.4
2019-02-22T02:09:19.261Z,5.6
2019-02-22T02:12:19.119Z,5.7
2019-02-22T02:15:19.174Z,5.6
2019-02-22T02:18:19.784Z,6.5
2019-02-22T02:21:19.269Z,5.5
2019-02-22T02:24:18.954Z,5.3
2019-02-22T02:27:18.738Z,5.6
2019-02-22T02:30:19.398Z,5.4
2019-02-22T02:33:19.449Z,5.7
2019-02-22T02:36:19.199Z,5.5
2019-02-22T02:39:19.071Z,5.3
2019-02-22T02:42:19.406Z,5.4
2019-02-22T02:45:19.571Z,5.2
2019-02-22T02:48:20.037Z,5.5
2019-02-22T02:51:19.997Z,5.5
2019-02-22T02:54:19.513Z,5.3
2019-02-22T02:57:19.618Z,5.4
2019-02-22T03:00:19.122Z,5.6
2019-02-22T03:03:19.491Z,5.2
2019-02-22T03:06:18.924Z,5.4
2019-02-22T03:09:19.102Z,5.5
2019-02-22T03:12:19.298Z,5.3
2019-02-22T03:15:19.917Z,5.5
2019-02-22T03:18:19.069Z,5.1
2019-02-22T03:21:19.193Z,5.5
2019-02-22T03:24:19.425Z,5.5
2019-02-22T03:27:19.292Z,5.7
2019-02-22T03:30:20.096Z,5.6
2019-02-22T03:33:19.209Z,5.3
2019-02-22T03:36:19.131Z,5.5
2019-02-22T03:39:19.370Z,5.2
2019-02-22T03:42:19.384Z,5.2
2019-02-22T03:45:19.346Z,5.1
2019-02-22T03:48:19.365Z,5.5
2019-02-22T03:51:19.559Z,5.3
2019-02-22T03:54:19.359Z,5.3
2019-02-22T03:57:20.059Z,5.2
2019-02-22T04:00:20.026Z,5.3
2019-02-22T04:03:19.184Z,5.4
2019-02-22T04:06:19.421Z,5.3
2019-02-22T04:09:19.309Z,5.3
2019-02-22T04:12:20.152Z,5.4
2019-02-22T04:15:19.211Z,4.9
2019-02-22T04:18:19.730Z,5.4
2019-02-22T04:21:19.033Z,5.5
2019-02-22T04:24:19.082Z,5.5
2019-02-22T04:27:18.968Z,5.3
2019-02-22T04:30:18.857Z,5.4
2019-02-22T04:33:19.218Z,5.4
2019-02-22T04:36:19.458Z,5
2019-02-22T04:39:19.051Z,5.4
2019-02-22T04:42:19.067Z,5
2019-02-22T04:45:19.072Z,5.3
2019-02-22T04:48:19.264Z,5.2
2019-02-22T04:51:18.968Z,5
2019-02-22T04:54:19.191Z,4.9
2019-02-22T04:57:19.442Z,4.8
2019-02-22T05:00:18.758Z,4.8
2019-02-22T05:03:19.221Z,4.9
2019-02-22T05:06:18.789Z,4.7
2019-02-22T05:09:18.829Z,4.6
2019-02-22T05:12:18.839Z,4.9
2019-02-22T05:15:18.988Z,4.9
2019-02-22T05:18:20.065Z,4.8
2019-02-22T05:21:19.304Z,4.9
2019-02-22T05:24:18.977Z,4.6
2019-02-22T05:27:19.448Z,4.7
2019-02-22T05:30:19.582Z,4.6
2019-02-22T05:33:19.797Z,4.7
2019-02-22T05:36:19.391Z,4.6
2019-02-22T05:39:20.005Z,4.8
2019-02-22T05:42:23.868Z,4.8
2019-02-22T05:45:19.077Z,4.5
2019-02-22T05:48:18.952Z,4.7
2019-02-22T05:51:19.200Z,4.5
2019-02-22T05:54:18.954Z,4.5
2019-02-22T05:57:18.944Z,4.5
2019-02-22T06:00:19.369Z,4.6
2019-02-22T06:03:19.160Z,4.8
2019-02-22T06:06:19.165Z,4.5
2019-02-22T06:09:19.045Z,4.4
2019-02-22T06:12:19.251Z,4.6
2019-02-22T06:15:19.218Z,4.4
2019-02-22T06:18:19.451Z,4.4
2019-02-22T06:21:19.323Z,4.3
2019-02-22T06:24:19.817Z,4.5
2019-02-22T06:27:20.108Z,4.4
2019-02-22T06:30:18.943Z,4.6
2019-02-22T06:33:19.032Z,4.4
2019-02-22T06:36:19.075Z,4.4
2019-02-22T06:39:20.695Z,4.6
2019-02-22T06:42:18.700Z,4.7
2019-02-22T06:45:20.073Z,4.4
2019-02-22T06:48:19.038Z,4.6
2019-02-22T06:51:18.920Z,4.6
2019-02-22T06:54:19.392Z,4.2
2019-02-22T06:57:19.326Z,4.4
2019-02-22T07:00:19.157Z,4.4
2019-02-22T07:03:19.272Z,4.5
2019-02-22T07:06:20.251Z,4.4
2019-02-22T07:09:19.120Z,4.4
2019-02-22T07:12:19.009Z,4.5
2019-02-22T07:15:19.230Z,4.2
2019-02-22T07:18:19.162Z,4.3
2019-02-22T07:21:19.543Z,4.1
2019-02-22T07:24:19.604Z,4.4
2019-02-22T07:27:18.913Z,4.4
2019-02-22T07:30:20.797Z,4.2
2019-02-22T07:33:19.772Z,4.6
2019-02-22T07:36:19.108Z,4.4
2019-02-22T07:39:28.610Z,4.5
2019-02-22T07:42:19.104Z,4.5
2019-02-22T07:45:19.448Z,4
2019-02-22T07:48:18.976Z,4.4
2019-02-22T07:51:18.841Z,6.5
2019-02-22T07:54:18.913Z,5.4
2019-02-22T07:57:18.834Z,4.7
2019-02-22T08:00:18.921Z,4.9
2019-02-22T08:03:20.983Z,4.3
2019-02-22T08:06:19.207Z,4.4
2019-02-22T08:09:18.980Z,4.2
2019-02-22T08:12:19.883Z,4.5
2019-02-22T08:15:19.551Z,4.5
2019-02-22T08:18:19.196Z,4.3
2019-02-22T08:21:19.302Z,4.2
2019-02-22T08:24:18.868Z,4.4
2019-02-22T08:27:19.199Z,4.4
2019-02-22T08:30:18.880Z,4.2
2019-02-22T08:33:19.287Z,4
2019-02-22T08:36:19.030Z,4.2
2019-02-22T08:39:19.123Z,4.3
2019-02-22T08:42:18.953Z,4.3
2019-02-22T08:45:19.792Z,4.2
2019-02-22T08:48:19.683Z,4.7
2019-02-22T08:51:19.236Z,5
2019-02-22T08:54:19.541Z,4.1
2019-02-22T08:57:19.052Z,4.3
2019-02-22T09:00:18.781Z,4.1
2019-02-22T09:03:18.971Z,4
2019-02-22T09:06:18.728Z,4.5
2019-02-22T09:09:18.864Z,4.5
2019-02-22T09:12:19.121Z,4.2
2019-02-22T09:15:18.976Z,4.2
2019-02-22T09:18:19.525Z,4.1
2019-02-22T09:21:19.541Z,4.1
2019-02-22T09:24:19.588Z,4.3
2019-02-22T09:27:19.165Z,4.3
2019-02-22T09:30:19.312Z,4
2019-02-22T09:33:19.205Z,3.9
2019-02-22T09:36:19.270Z,5.5
2019-02-22T09:39:18.877Z,11.9
2019-02-22T09:42:18.980Z,15.3
2019-02-22T09:45:18.892Z,16.2
2019-02-22T09:48:18.921Z,17.1
2019-02-22T09:51:19.111Z,18
2019-02-22T09:54:18.728Z,18.8
2019-02-22T09:57:18.978Z,18
2019-02-22T10:00:18.890Z,19.1
2019-02-22T10:03:19.649Z,20.1
2019-02-22T10:06:18.743Z,20.9
2019-02-22T10:09:18.880Z,20.4
2019-02-22T10:12:19.453Z,21.4
2019-02-22T10:15:19.153Z,20.3
2019-02-22T10:18:18.853Z,19.8
2019-02-22T10:21:19.158Z,20.3
2019-02-22T10:24:19.077Z,20.4
2019-02-22T10:27:18.887Z,19.2
2019-02-22T10:30:18.758Z,17.9
2019-02-22T10:33:18.924Z,18.6
2019-02-22T10:36:18.985Z,18.5
2019-02-22T10:39:18.841Z,16.1
2019-02-22T10:42:19.097Z,18.7
2019-02-22T10:45:19.077Z,18.4
2019-02-22T10:48:19.822Z,16
2019-02-22T10:51:18.842Z,15.7
2019-02-22T10:54:18.884Z,13.2
2019-02-22T10:57:19.123Z,11
2019-02-22T11:00:18.838Z,11.5
2019-02-22T11:03:19.052Z,9.5
2019-02-22T11:06:19.035Z,9.3
2019-02-22T11:09:19.949Z,11.2
2019-02-22T11:12:19.536Z,9.7
2019-02-22T11:15:18.960Z,7.5
2019-02-22T11:18:19.135Z,7.3
2019-02-22T11:21:19.256Z,8.4
2019-02-22T11:24:20.700Z,5.8
2019-02-22T11:27:19.506Z,5.6
2019-02-22T11:30:19.713Z,9.5
2019-02-22T11:33:19.751Z,7
2019-02-22T11:36:19.301Z,5.4
2019-02-22T11:39:18.936Z,6.4
2019-02-22T11:42:20.558Z,6.2
2019-02-22T11:45:18.888Z,5.1
2019-02-22T11:48:18.950Z,6.3
2019-02-22T11:51:19.041Z,6.7
2019-02-22T11:54:19.017Z,5.6
2019-02-22T11:57:20.690Z,5.7
2019-02-22T12:00:18.785Z,4.8
2019-02-22T12:03:25.501Z,5.9
2019-02-22T12:06:19.019Z,5.2
2019-02-22T12:09:18.926Z,4.7
2019-02-22T12:12:19.004Z,4.5
2019-02-22T12:15:19.172Z,5
2019-02-22T12:18:19.175Z,4.5
2019-02-22T12:21:18.984Z,4.3
2019-02-22T12:24:19.109Z,4.3
2019-02-22T12:27:19.564Z,3.7
2019-02-22T12:30:18.785Z,5.7
2019-02-22T12:33:18.960Z,3.7
2019-02-22T12:36:18.959Z,4.4
2019-02-22T12:39:19.506Z,3.4
2019-02-22T12:42:18.876Z,4.6
2019-02-22T12:45:18.791Z,3.5
2019-02-22T12:48:19.413Z,3.3
2019-02-22T12:51:19.137Z,3.7
2019-02-22T12:54:18.988Z,4.4
2019-02-22T12:57:19.245Z,4.1
2019-02-22T13:00:19.167Z,3.1
2019-02-22T13:03:19.080Z,3.7
2019-02-22T13:06:18.803Z,3.5
2019-02-22T13:09:18.962Z,3.7
2019-02-22T13:12:18.965Z,3.2
2019-02-22T13:15:18.827Z,3.4
2019-02-22T13:18:18.773Z,3.8
2019-02-22T13:21:19.507Z,3.4
2019-02-22T13:24:19.981Z,8.2
2019-02-22T13:27:19.199Z,3.2
2019-02-22T13:30:19.218Z,3.2
2019-02-22T13:33:19.158Z,3.5
2019-02-22T13:36:18.798Z,6.3
2019-02-22T13:39:19.174Z,3.7
2019-02-22T13:42:18.664Z,5
2019-02-22T13:45:27.522Z,5
2019-02-22T13:48:18.838Z,2.9
2019-02-22T13:51:20.706Z,6.1
2019-02-22T13:54:19.097Z,6.1
2019-02-22T13:57:19.130Z,3.9
2019-02-22T14:00:19.871Z,3.7
2019-02-22T14:03:20.698Z,5.5
2019-02-22T14:06:19.735Z,5.3
2019-02-22T14:09:18.512Z,3.9
2019-02-22T14:12:19.242Z,3.8
2019-02-22T14:15:19.248Z,2.8
2019-02-22T14:18:18.858Z,2.8
2019-02-22T14:21:19.165Z,4.5
2019-02-22T14:24:18.838Z,5.6
2019-02-22T14:27:18.783Z,5.4
2019-02-22T14:30:19.918Z,4.7
2019-02-22T14:33:20.686Z,5.8
2019-02-22T14:36:21.017Z,3.9
2019-02-22T14:39:19.031Z,4
2019-02-22T14:42:18.805Z,3.1
2019-02-22T14:45:19.149Z,3.7
2019-02-22T14:48:18.965Z,2.3
2019-02-22T14:51:19.052Z,3.6
2019-02-22T14:54:18.791Z,3.8
2019-02-22T14:57:19.205Z,2.9
2019-02-22T15:00:18.762Z,3.7
2019-02-22T15:03:19.429Z,5.1
2019-02-22T15:06:19.429Z,4
2019-02-22T15:09:19.176Z,4.6
2019-02-22T15:12:18.801Z,2.4
2019-02-22T15:15:19.831Z,2.1
2019-02-22T15:18:19.690Z,2.3
2019-02-22T15:21:19.160Z,2.6
2019-02-22T15:24:18.640Z,2.2
2019-02-22T15:27:18.819Z,2.5
2019-02-22T15:30:19.701Z,4.2
2019-02-22T15:33:18.632Z,2
2019-02-22T15:36:18.881Z,2.1
2019-02-22T15:39:18.870Z,2.1
2019-02-22T15:42:18.977Z,2.3
2019-02-22T15:45:18.940Z,2.3
2019-02-22T15:48:18.676Z,2.2
2019-02-22T15:51:19.185Z,2
2019-02-22T15:54:19.101Z,2
2019-02-22T15:57:18.983Z,2
2019-02-22T16:00:19.343Z,2.3
2019-02-22T16:03:18.975Z,2.1
2019-02-22T16:06:19.267Z,2.5
2019-02-22T16:09:19.058Z,1.9
2019-02-22T16:12:18.817Z,3.3
2019-02-22T16:15:18.978Z,2.5
2019-02-22T16:18:18.949Z,2.6
2019-02-22T16:21:19.470Z,3
2019-02-22T16:24:19.524Z,1.9
2019-02-22T16:27:18.470Z,2.9
2019-02-22T16:30:19.355Z,2.3
2019-02-22T16:33:18.910Z,9.5
2019-02-22T16:36:18.676Z,2.2
2019-02-22T16:39:18.910Z,2.2
2019-02-22T16:42:18.940Z,2.4
2019-02-22T16:45:18.687Z,3.7
2019-02-22T16:48:18.760Z,3.1
2019-02-22T16:51:19.154Z,1.8
2019-02-22T16:54:18.988Z,3.7
2019-02-22T16:57:20.552Z,2.7
2019-02-22T17:00:18.774Z,2.7
2019-02-22T17:03:18.877Z,2.1
2019-02-22T17:06:19.082Z,3.1
2019-02-22T17:09:19.094Z,3.4
2019-02-22T17:12:19.614Z,4.1
2019-02-22T17:15:19.048Z,3.2
2019-02-22T17:18:18.784Z,3.7
2019-02-22T17:21:18.768Z,4.8
2019-02-22T17:24:19.173Z,3.1
2019-02-22T17:27:19.335Z,4.9
2019-02-22T17:30:20.500Z,3.5
2019-02-22T17:33:19.664Z,3.6
2019-02-22T17:36:27.548Z,2.9
2019-02-22T17:39:18.670Z,2.9
2019-02-22T17:42:18.867Z,3.5
2019-02-22T17:45:18.933Z,3.8
2019-02-22T17:48:18.877Z,3.1
2019-02-22T17:51:19.332Z,2
2019-02-22T17:54:18.817Z,3.3
2019-02-22T17:57:18.741Z,2.3
2019-02-22T18:00:18.883Z,1.6
2019-02-22T18:03:20.608Z,1.6
2019-02-22T18:06:18.569Z,1.9
2019-02-22T18:09:19.148Z,2
2019-02-22T18:12:18.928Z,2.7
2019-02-22T18:15:18.906Z,2.6
2019-02-22T18:18:19.315Z,2.8
2019-02-22T18:21:18.921Z,2
2019-02-22T18:24:18.612Z,7.1
2019-02-22T18:27:18.908Z,3.7
2019-02-22T18:30:20.384Z,4.7
2019-02-22T18:33:18.736Z,2.9
2019-02-22T18:36:18.830Z,3.4
2019-02-22T18:39:18.846Z,3.6
2019-02-22T18:42:19.007Z,4.1
2019-02-22T18:45:18.619Z,2.8
2019-02-22T18:48:19.005Z,2.6
2019-02-22T18:51:18.829Z,3.6
2019-02-22T18:54:18.839Z,3.5
2019-02-22T18:57:18.776Z,2.9
2019-02-22T19:00:19.289Z,3.4
2019-02-22T19:03:18.557Z,2.5
2019-02-22T19:06:18.395Z,4.9
2019-02-22T19:09:18.377Z,2.7
2019-02-22T19:12:18.751Z,2.5
2019-02-22T19:15:18.881Z,2.8
2019-02-22T19:18:18.461Z,4.3
2019-02-22T19:21:19.215Z,2.6
2019-02-22T19:24:18.895Z,2.9
2019-02-22T19:27:18.760Z,2.9
2019-02-22T19:30:19.060Z,2.5
2019-02-22T19:33:18.806Z,2.5
2019-02-22T19:36:18.750Z,4.5
2019-02-22T19:39:18.971Z,8.2
2019-02-22T19:42:18.394Z,7.3
2019-02-22T19:45:18.809Z,6.6
2019-02-22T19:48:18.834Z,3.8
2019-02-22T19:51:18.845Z,5.1
2019-02-22T19:54:19.492Z,3.1
2019-02-22T19:57:19.101Z,3.4
2019-02-22T20:00:18.890Z,3.8
2019-02-22T20:03:18.740Z,4.6
2019-02-22T20:06:19.046Z,3.3
2019-02-22T20:09:18.853Z,4.2
2019-02-22T20:12:18.524Z,9.5
2019-02-22T20:15:18.495Z,11.1
2019-02-22T20:18:19.168Z,9.2
2019-02-22T20:21:18.613Z,15.6
2019-02-22T20:24:18.850Z,7.7
2019-02-22T20:27:18.487Z,10.8
2019-02-22T20:30:18.729Z,12.8
2019-02-22T20:33:18.563Z,11.9
2019-02-22T20:36:29.051Z,8.5
2019-02-22T20:39:18.761Z,9.1
2019-02-22T20:42:19.143Z,10.3
2019-02-22T20:45:19.309Z,10.2
2019-02-22T20:48:18.751Z,9.7
2019-02-22T20:51:18.741Z,7.7
2019-02-22T20:54:18.892Z,7.8
2019-02-22T20:57:18.816Z,8.8
2019-02-22T21:00:18.942Z,9
2019-02-22T21:03:19.069Z,9.2
2019-02-22T21:06:18.640Z,6.9
2019-02-22T21:09:18.527Z,7.4
2019-02-22T21:12:18.347Z,9.8
2019-02-22T21:15:18.915Z,11.4
2019-02-22T21:18:18.842Z,10.4
2019-02-22T21:21:18.321Z,8.5
2019-02-22T21:24:18.600Z,9.1
2019-02-22T21:27:18.641Z,9.8
2019-02-22T21:30:18.577Z,7.3
2019-02-22T21:33:18.885Z,6.2
2019-02-22T21:36:19.188Z,6.5
2019-02-22T21:39:19.574Z,9.5
2019-02-22T21:42:20.879Z,6.5
2019-02-22T21:45:18.530Z,5.1
2019-02-22T21:48:28.147Z,5.1
2019-02-22T21:51:20.529Z,7.4
2019-02-22T21:54:18.996Z,4.8
2019-02-22T21:57:18.851Z,5
2019-02-22T22:00:18.727Z,5.4
2019-02-22T22:03:18.787Z,5.5
2019-02-22T22:06:18.771Z,4.4
2019-02-22T22:09:20.286Z,4.6
2019-02-22T22:12:19.883Z,4.3
2019-02-22T22:15:18.789Z,4.9
2019-02-22T22:18:18.772Z,5.1
2019-02-22T22:21:18.546Z,4.4
2019-02-22T22:24:19.050Z,6.8
2019-02-22T22:27:18.526Z,8.4
2019-02-22T22:30:18.859Z,3.8
2019-02-22T22:33:18.516Z,3.2
2019-02-22T22:36:19.004Z,4.7
2019-02-22T22:39:18.820Z,5.3
2019-02-22T22:42:18.555Z,4.2
2019-02-22T22:45:19.462Z,3.2
2019-02-22T22:48:18.833Z,5.6
2019-02-22T22:51:18.885Z,3.6
2019-02-22T22:54:18.830Z,3.9
2019-02-22T22:57:20.413Z,4
2019-02-22T23:00:20.466Z,6.7
2019-02-22T23:03:18.906Z,3
2019-02-22T23:06:19.129Z,2.7
2019-02-22T23:09:18.822Z,3.6
2019-02-22T23:12:18.642Z,4.2
2019-02-22T23:15:18.436Z,2.9
2019-02-22T23:18:20.267Z,4.9
2019-02-22T23:21:18.361Z,4.1
2019-02-22T23:24:18.379Z,3.4
2019-02-22T23:27:19.459Z,2.7
2019-02-22T23:30:18.880Z,4.4
2019-02-22T23:33:18.709Z,3.7
2019-02-22T23:36:18.515Z,2.8
2019-02-22T23:39:18.872Z,3.4
2019-02-22T23:42:18.744Z,3.1
2019-02-22T23:45:20.263Z,2.7
2019-02-22T23:48:18.389Z,2.6
2019-02-22T23:51:18.701Z,2.6
2019-02-22T23:54:18.486Z,2.6
2019-02-22T23:57:18.584Z,2.4
